Time;durP1;ratioP1;P1;durP2;ratioP2;P2;SDS_P1;SDS_P2;PMS_P1;PMS_P2;Temp;Humidity;BMP_temperature;BMP_pressure;BME280_temperature;BME280_humidity;BME280_pressure;Samples;Min_cycle;Max_cycle;Signal;HPM_P1;HPM_P2
2021/06/19 00:00:53;;;;;;;7.83;5.50;;;;;;;24.90;62.88;99166.19;5159385;27;20420;-77
2021/06/19 00:03:21;;;;;;;10.93;6.37;;;;;;;25.05;62.21;99166.16;5158723;27;20488;-78
2021/06/19 00:05:47;;;;;;;7.10;6.13;;;;;;;24.99;62.03;99170.53;5158705;27;20471;-78
2021/06/19 00:08:14;;;;;;;8.40;6.10;;;;;;;24.91;62.33;99176.16;5159204;27;20506;-78
2021/06/19 00:10:41;;;;;;;8.50;6.47;;;;;;;24.95;62.07;99183.84;5160326;27;20431;-78
2021/06/19 00:13:08;;;;;;;7.00;6.30;;;;;;;25.05;61.78;99180.78;5160659;27;20517;-78
2021/06/19 00:15:37;;;;;;;6.50;5.50;;;;;;;25.10;61.70;99188.47;5158974;27;20467;-78
2021/06/19 00:18:04;;;;;;;7.10;6.40;;;;;;;25.09;61.91;99187.59;5159422;27;20422;-77
2021/06/19 00:20:31;;;;;;;10.07;5.93;;;;;;;25.10;61.85;99182.94;5161158;27;21362;-77
2021/06/19 00:22:57;;;;;;;10.57;6.13;;;;;;;25.11;61.79;99195.69;5165511;27;21179;-78
2021/06/19 00:25:26;;;;;;;7.33;5.77;;;;;;;24.89;61.94;99192.84;5165880;27;20437;-76
2021/06/19 00:27:52;;;;;;;8.20;6.23;;;;;;;24.94;61.89;99192.28;5164803;27;20438;-77
2021/06/19 00:30:20;;;;;;;9.50;5.80;;;;;;;24.89;62.31;99192.00;5163791;27;20823;-77
2021/06/19 00:32:49;;;;;;;7.73;5.50;;;;;;;24.98;62.11;99188.09;5163326;27;20503;-78
2021/06/19 00:35:16;;;;;;;6.40;5.60;;;;;;;24.76;62.43;99199.06;5161293;27;20957;-78
2021/06/19 00:37:43;;;;;;;6.07;5.10;;;;;;;24.69;62.54;99198.13;5161694;27;20496;-79
2021/06/19 00:40:13;;;;;;;9.33;6.03;;;;;;;24.71;62.50;99201.50;5162155;27;20502;-78
2021/06/19 00:42:40;;;;;;;14.33;5.83;;;;;;;24.55;62.81;99204.44;5160597;27;20510;-76
2021/06/19 00:45:08;;;;;;;8.23;6.00;;;;;;;24.61;62.44;99211.97;5160884;27;20556;-77
2021/06/19 00:47:39;;;;;;;6.83;5.27;;;;;;;24.70;62.30;99219.06;5161683;27;20540;-78
2021/06/19 00:50:09;;;;;;;7.37;5.03;;;;;;;24.75;62.11;99218.50;5162083;27;20416;-78
2021/06/19 00:52:35;;;;;;;9.13;5.93;;;;;;;24.58;62.39;99216.97;5161149;27;20478;-77
2021/06/19 00:55:03;;;;;;;8.27;4.93;;;;;;;24.37;63.10;99217.69;5161280;27;20944;-77
2021/06/19 00:57:29;;;;;;;6.10;4.87;;;;;;;24.35;63.40;99228.88;5161387;27;20435;-77
2021/06/19 00:59:57;;;;;;;7.67;5.07;;;;;;;24.32;64.30;99230.09;5162184;27;20459;-77
2021/06/19 01:02:24;;;;;;;5.60;5.00;;;;;;;24.40;64.48;99231.94;5161723;27;20453;-77
2021/06/19 01:04:51;;;;;;;6.73;5.50;;;;;;;24.28;64.82;99228.75;5160638;27;20547;-77
2021/06/19 01:07:19;;;;;;;8.13;5.00;;;;;;;24.19;65.06;99234.53;5162784;27;20570;-77
2021/06/19 01:09:46;;;;;;;13.67;5.47;;;;;;;24.16;65.39;99235.75;5161693;27;20771;-77
2021/06/19 01:12:13;;;;;;;7.10;5.10;;;;;;;24.08;66.14;99236.69;5162533;27;20539;-78
2021/06/19 01:14:43;;;;;;;7.30;6.13;;;;;;;24.06;66.29;99240.66;5162058;27;20456;-78
2021/06/19 01:17:09;;;;;;;8.60;6.00;;;;;;;23.98;65.95;99232.50;5161952;27;20511;-77
2021/06/19 01:19:36;;;;;;;8.20;5.53;;;;;;;23.91;66.52;99233.22;5163313;27;20471;-77
2021/06/19 01:22:03;;;;;;;6.33;5.37;;;;;;;23.90;66.38;99223.28;5163670;27;20438;-78
2021/06/19 01:24:33;;;;;;;8.33;5.77;;;;;;;23.77;66.56;99224.94;5163784;27;20463;-78
2021/06/19 01:27:00;;;;;;;12.20;6.07;;;;;;;23.73;66.71;99224.41;5161851;27;20435;-78
2021/06/19 01:29:27;;;;;;;7.93;5.17;;;;;;;23.68;67.17;99221.34;5161627;27;20427;-78
2021/06/19 01:31:54;;;;;;;7.50;5.40;;;;;;;23.72;66.88;99220.81;5159861;27;20452;-77
2021/06/19 01:34:20;;;;;;;7.77;5.47;;;;;;;23.66;67.26;99206.94;5159935;27;20443;-77
2021/06/19 01:36:47;;;;;;;5.37;4.70;;;;;;;23.88;66.35;99211.59;5160322;27;20783;-77
2021/06/19 01:39:14;;;;;;;9.23;5.30;;;;;;;23.87;66.63;99218.13;5160799;27;20494;-77
2021/06/19 01:41:42;;;;;;;6.20;5.60;;;;;;;24.02;66.33;99214.59;5162390;27;20583;-77
2021/06/19 01:44:11;;;;;;;6.90;5.77;;;;;;;24.13;65.92;99208.66;5163291;27;20435;-78
2021/06/19 01:46:40;;;;;;;9.23;5.93;;;;;;;24.12;66.27;99212.41;5163480;27;20916;-77
2021/06/19 01:49:08;;;;;;;12.20;6.90;;;;;;;23.97;66.90;99214.25;5162323;27;20522;-79
2021/06/19 01:51:34;;;;;;;7.37;6.07;;;;;;;24.01;66.96;99207.34;5162390;27;20427;-79
2021/06/19 01:54:01;;;;;;;6.57;5.97;;;;;;;24.05;66.43;99205.97;5162676;27;20510;-78
2021/06/19 01:56:28;;;;;;;7.70;6.30;;;;;;;24.01;66.89;99212.88;5162884;27;20510;-78
2021/06/19 01:58:56;;;;;;;10.33;6.93;;;;;;;23.87;67.47;99209.03;5162373;27;20474;-78
2021/06/19 02:01:23;;;;;;;13.87;6.70;;;;;;;23.96;67.28;99215.31;5162723;27;20452;-78
2021/06/19 02:03:52;;;;;;;9.03;6.00;;;;;;;23.94;67.58;99207.25;5162171;27;21245;-78
2021/06/19 02:06:19;;;;;;;7.67;6.20;;;;;;;23.96;67.59;99215.31;5162047;27;20455;-78
2021/06/19 02:09:00;;;;;;;8.43;6.90;;;;;;;24.07;67.05;99209.38;5162017;27;20466;-78
2021/06/19 02:11:27;;;;;;;9.40;6.10;;;;;;;23.85;67.63;99203.69;5161036;27;21242;-78
2021/06/19 02:13:55;;;;;;;9.23;7.27;;;;;;;23.82;68.05;99211.47;5161103;27;20775;-78
2021/06/19 02:16:22;;;;;;;9.70;5.90;;;;;;;23.64;68.92;99211.75;5160955;27;20522;-78
2021/06/19 02:18:49;;;;;;;9.87;6.63;;;;;;;23.39;69.88;99213.81;5162262;27;20800;-78
2021/06/19 02:21:16;;;;;;;6.47;5.80;;;;;;;23.20;70.05;99215.09;5161657;27;20489;-78
2021/06/19 02:23:43;;;;;;;8.20;6.03;;;;;;;23.29;69.68;99208.53;5161831;27;20442;-78
2021/06/19 02:26:09;;;;;;;7.07;5.80;;;;;;;23.29;69.59;99209.41;5162539;27;20514;-78
2021/06/19 02:28:36;;;;;;;9.50;5.20;;;;;;;23.01;70.74;99216.41;5162208;27;20522;-78
2021/06/19 02:31:04;;;;;;;8.03;6.00;;;;;;;22.94;71.17;99218.13;5162692;27;20444;-78
2021/06/19 02:33:37;;;;;;;5.93;4.63;;;;;;;22.69;72.34;99221.81;5163722;27;20526;-78
2021/06/19 02:36:04;;;;;;;9.23;6.30;;;;;;;22.66;72.40;99226.81;5163463;27;20919;-78
2021/06/19 02:38:31;;;;;;;9.90;5.70;;;;;;;22.57;73.03;99231.47;5163372;27;20446;-78
2021/06/19 02:40:58;;;;;;;5.53;5.03;;;;;;;22.68;72.21;99225.59;5162758;27;20982;-78
2021/06/19 02:43:29;;;;;;;6.80;5.33;;;;;;;22.65;72.44;99230.56;5162305;27;20501;-77
2021/06/19 02:45:59;;;;;;;8.07;6.87;;;;;;;22.68;73.83;99231.09;5163950;27;20920;-77
2021/06/19 02:48:27;;;;;;;8.13;6.60;;;;;;;22.74;73.46;99234.16;5163201;27;20449;-78
2021/06/19 02:50:54;;;;;;;7.87;5.50;;;;;;;22.93;71.31;99228.25;5163232;27;20503;-78
2021/06/19 02:53:20;;;;;;;11.00;6.70;;;;;;;22.85;72.33;99242.00;5163351;27;20410;-78
2021/06/19 02:55:47;;;;;;;10.00;6.70;;;;;;;22.69;73.67;99245.66;5163012;27;20432;-78
2021/06/19 02:58:17;;;;;;;7.63;6.90;;;;;;;22.89;72.57;99243.38;5162664;27;20423;-78
2021/06/19 03:00:44;;;;;;;7.20;6.10;;;;;;;22.83;72.77;99249.56;5161754;27;20512;-77
2021/06/19 03:03:10;;;;;;;6.63;5.73;;;;;;;22.93;72.25;99238.34;5163022;27;20424;-78
2021/06/19 03:05:39;;;;;;;11.40;6.40;;;;;;;22.77;72.75;99245.66;5165978;27;20539;-78
2021/06/19 03:08:07;;;;;;;10.70;6.63;;;;;;;22.61;73.13;99246.56;5166797;27;20471;-78
2021/06/19 03:10:36;;;;;;;6.23;5.60;;;;;;;22.35;74.31;99248.66;5167017;27;20437;-78
2021/06/19 03:13:03;;;;;;;6.00;5.50;;;;;;;22.17;75.12;99243.31;5162473;27;20435;-78
2021/06/19 03:15:30;;;;;;;7.00;6.27;;;;;;;22.20;74.84;99249.28;5162052;27;20455;-78
2021/06/19 03:17:57;;;;;;;7.60;5.40;;;;;;;22.16;75.12;99247.94;5162536;27;20445;-78
2021/06/19 03:20:24;;;;;;;8.07;5.50;;;;;;;22.11;75.32;99253.06;5162290;27;20907;-78
2021/06/19 03:22:54;;;;;;;8.00;6.23;;;;;;;22.10;75.05;99253.25;5161966;27;20494;-78
2021/06/19 03:25:23;;;;;;;8.00;5.53;;;;;;;22.04;75.42;99258.38;5160659;27;20455;-78
2021/06/19 03:27:50;;;;;;;7.57;5.37;;;;;;;21.96;76.16;99265.78;5162348;27;20503;-78
2021/06/19 03:30:20;;;;;;;10.77;5.73;;;;;;;21.97;76.30;99264.72;5162249;27;20454;-77
2021/06/19 03:32:47;;;;;;;8.97;6.63;;;;;;;21.89;76.89;99281.16;5163352;27;20846;-78
2021/06/19 03:35:15;;;;;;;8.43;5.80;;;;;;;22.03;76.17;99281.34;5164072;27;20419;-78
2021/06/19 03:37:41;;;;;;;7.80;7.07;;;;;;;21.97;76.50;99267.47;5165633;27;20470;-78
2021/06/19 03:40:10;;;;;;;11.70;5.80;;;;;;;21.86;76.95;99266.75;5160334;27;20479;-78
2021/06/19 03:42:38;;;;;;;6.50;6.00;;;;;;;21.72;77.88;99267.44;5161490;27;20415;-78
2021/06/19 03:45:06;;;;;;;8.03;5.50;;;;;;;21.59;78.27;99259.69;5161872;27;20510;-78
2021/06/19 03:47:33;;;;;;;6.73;5.10;;;;;;;21.52;79.03;99274.25;5161894;27;20474;-78
2021/06/19 03:49:59;;;;;;;6.87;6.10;;;;;;;21.62;78.79;99283.19;5161180;27;20530;-78
2021/06/19 03:52:26;;;;;;;8.70;6.33;;;;;;;21.81;77.59;99277.38;5160748;27;20424;-78
2021/06/19 03:54:53;;;;;;;8.27;5.90;;;;;;;21.60;78.74;99269.66;5164675;27;20518;-78
2021/06/19 03:57:26;;;;;;;6.33;5.77;;;;;;;21.51;79.34;99276.13;5167144;27;20423;-78
2021/06/19 03:59:53;;;;;;;6.77;6.17;;;;;;;21.80;77.58;99275.69;5168368;27;20552;-78
2021/06/19 04:02:21;;;;;;;9.40;6.10;;;;;;;21.95;77.12;99275.84;5170238;27;20446;-79
2021/06/19 04:04:48;;;;;;;7.53;5.53;;;;;;;21.90;76.72;99281.00;5170831;27;20536;-78
2021/06/19 04:07:14;;;;;;;10.37;7.30;;;;;;;21.73;77.26;99282.88;5169037;27;20447;-78
2021/06/19 04:09:41;;;;;;;7.77;6.47;;;;;;;21.61;78.31;99287.78;5168238;27;20477;-77
2021/06/19 04:12:09;;;;;;;8.87;6.40;;;;;;;21.64;77.93;99286.63;5168487;27;20439;-79
2021/06/19 04:14:37;;;;;;;8.70;6.30;;;;;;;21.51;78.81;99291.72;5169313;27;20416;-78
2021/06/19 04:17:04;;;;;;;6.83;6.13;;;;;;;21.58;78.63;99309.19;5161206;27;20427;-78
2021/06/19 04:19:31;;;;;;;9.43;6.20;;;;;;;21.51;79.37;99303.53;5169406;27;20499;-78
2021/06/19 04:21:57;;;;;;;9.73;6.10;;;;;;;21.60;78.83;99305.25;5165880;27;20722;-78
2021/06/19 04:24:24;;;;;;;7.43;6.23;;;;;;;21.61;78.79;99309.72;5165535;27;20455;-78
2021/06/19 04:26:51;;;;;;;7.40;5.77;;;;;;;21.47;79.64;99306.78;5165902;27;20513;-78
2021/06/19 04:29:17;;;;;;;8.20;6.00;;;;;;;21.62;79.21;99300.47;5165204;27;20924;-78
2021/06/19 04:31:45;;;;;;;6.87;6.17;;;;;;;21.67;78.54;99299.97;5169358;27;20439;-78
2021/06/19 04:34:12;;;;;;;7.73;6.60;;;;;;;21.74;78.28;99302.91;5169000;27;20443;-78
2021/06/19 04:36:39;;;;;;;7.80;6.57;;;;;;;21.69;78.38;99300.66;5170743;27;20423;-78
2021/06/19 04:39:05;;;;;;;6.80;5.83;;;;;;;21.69;78.25;99292.44;5170293;27;20427;-76
2021/06/19 04:41:36;;;;;;;12.53;6.27;;;;;;;21.62;79.18;99294.16;5164692;27;20546;-77
2021/06/19 04:44:19;;;;;;;11.07;7.90;;;;;;;21.86;78.37;99299.66;5167532;27;20518;-76
2021/06/19 04:46:48;;;;;;;22.63;9.30;;;;;;;22.18;76.22;99303.47;5165611;27;20427;-76
2021/06/19 04:49:14;;;;;;;8.47;5.83;;;;;;;22.25;75.69;99300.91;5168713;27;20469;-77
2021/06/19 04:51:41;;;;;;;7.13;6.23;;;;;;;22.44;74.46;99296.97;5167154;27;20463;-76
2021/06/19 04:54:08;;;;;;;9.33;6.70;;;;;;;22.57;74.05;99302.78;5167040;27;20423;-77
2021/06/19 04:56:35;;;;;;;8.77;6.00;;;;;;;22.66;74.12;99299.00;5169288;27;20439;-77
2021/06/19 04:59:01;;;;;;;7.57;6.00;;;;;;;23.04;71.64;99302.03;5169787;27;20435;-77
2021/06/19 05:01:28;;;;;;;9.20;6.53;;;;;;;23.13;71.20;99301.97;5169895;27;20459;-77
2021/06/19 05:03:57;;;;;;;8.43;6.13;;;;;;;23.00;71.80;99295.19;5165206;27;20556;-76
2021/06/19 05:06:23;;;;;;;7.60;6.00;;;;;;;22.96;71.49;99291.03;5156374;27;20434;-76
2021/06/19 05:08:50;;;;;;;8.10;6.43;;;;;;;23.01;71.66;99293.28;5156855;27;20451;-77
2021/06/19 05:11:16;;;;;;;9.07;6.03;;;;;;;23.18;70.75;99285.81;5156668;27;20442;-77
2021/06/19 05:13:43;;;;;;;8.10;6.40;;;;;;;23.43;69.48;99287.44;5156226;27;20979;-77
2021/06/19 05:16:10;;;;;;;6.23;5.70;;;;;;;23.25;70.26;99284.94;5156617;27;20419;-77
2021/06/19 05:18:36;;;;;;;11.03;5.93;;;;;;;23.28;69.93;99281.84;5156257;27;20439;-77
2021/06/19 05:21:05;;;;;;;8.50;7.37;;;;;;;23.46;69.01;99273.34;5157020;27;20546;-73
2021/06/19 05:23:31;;;;;;;9.83;5.83;;;;;;;23.46;69.12;99272.50;5156017;27;20445;-74
2021/06/19 05:25:58;;;;;;;7.17;6.43;;;;;;;23.64;68.02;99284.06;5155999;27;20882;-74
2021/06/19 05:28:24;;;;;;;12.07;6.37;;;;;;;23.81;67.24;99276.59;5155600;27;20452;-72
2021/06/19 05:30:51;;;;;;;10.43;6.17;;;;;;;23.99;66.42;99272.69;5156215;27;20435;-74
2021/06/19 05:33:18;;;;;;;8.23;5.90;;;;;;;24.30;65.34;99273.44;5155913;27;20484;-72
2021/06/19 05:35:44;;;;;;;8.40;6.80;;;;;;;24.37;65.14;99278.22;5155486;27;20514;-73
2021/06/19 05:38:12;;;;;;;9.87;5.90;;;;;;;24.41;64.19;99276.81;5155968;27;20518;-74
2021/06/19 05:40:39;;;;;;;5.07;4.57;;;;;;;24.43;64.10;99277.47;5155852;27;20471;-74
2021/06/19 05:43:06;;;;;;;6.20;5.10;;;;;;;24.76;62.06;99281.66;5155116;27;20431;-74
2021/06/19 05:45:32;;;;;;;5.60;4.63;;;;;;;24.85;61.45;99290.69;5155754;27;20431;-73
2021/06/19 05:47:59;;;;;;;5.00;4.50;;;;;;;25.00;61.13;99296.16;5156454;27;20500;-74
2021/06/19 05:50:26;;;;;;;5.17;4.37;;;;;;;24.92;61.51;99288.03;5155669;27;20455;-73
2021/06/19 05:52:52;;;;;;;6.30;4.90;;;;;;;24.44;63.00;99287.44;5155960;27;20419;-73
2021/06/19 05:55:20;;;;;;;5.40;4.60;;;;;;;24.54;62.86;99288.06;5155701;27;20438;-73
2021/06/19 05:57:47;;;;;;;5.47;4.40;;;;;;;24.55;62.77;99278.75;5155676;27;20873;-73
2021/06/19 06:00:14;;;;;;;4.50;3.93;;;;;;;24.48;63.14;99280.56;5155804;27;20439;-73
2021/06/19 06:02:42;;;;;;;5.00;4.53;;;;;;;24.44;63.02;99277.28;5155019;27;20466;-73
2021/06/19 06:05:10;;;;;;;4.63;4.17;;;;;;;24.54;62.98;99277.06;5155177;27;20879;-73
2021/06/19 06:07:37;;;;;;;6.73;4.70;;;;;;;24.97;61.46;99278.13;5156100;27;20777;-74
2021/06/19 06:10:04;;;;;;;6.43;4.10;;;;;;;25.00;61.40;99270.53;5138411;27;20495;-73
2021/06/19 06:12:32;;;;;;;6.63;4.60;;;;;;;25.30;60.33;99276.91;5155123;27;20526;-73
2021/06/19 06:14:59;;;;;;;5.83;4.07;;;;;;;25.50;59.63;99280.75;5155005;27;20419;-73
2021/06/19 06:17:26;;;;;;;4.80;4.03;;;;;;;25.49;59.45;99283.72;5154544;27;20432;-73
2021/06/19 06:19:52;;;;;;;4.13;3.77;;;;;;;25.45;59.57;99274.97;5155129;27;20901;-73
2021/06/19 06:22:19;;;;;;;4.70;3.77;;;;;;;25.73;58.62;99274.22;5154795;27;20550;-73
2021/06/19 06:24:46;;;;;;;7.10;4.00;;;;;;;25.95;57.87;99280.66;5155038;27;20507;-74
2021/06/19 06:27:12;;;;;;;3.97;3.63;;;;;;;26.09;57.18;99281.66;5154466;27;20445;-74
2021/06/19 06:29:40;;;;;;;4.03;3.73;;;;;;;26.30;55.81;99289.94;5154933;27;20905;-73
2021/06/19 06:32:08;;;;;;;3.80;3.50;;;;;;;26.12;56.18;99279.34;5154798;27;20948;-73
2021/06/19 06:34:34;;;;;;;3.70;3.40;;;;;;;25.88;56.54;99282.50;5154367;27;20434;-73
2021/06/19 06:37:01;;;;;;;4.33;3.40;;;;;;;25.87;56.87;99289.00;5154751;27;20904;-74
2021/06/19 06:39:28;;;;;;;4.33;3.20;;;;;;;26.11;56.27;99290.59;5154791;27;20872;-73
2021/06/19 06:41:55;;;;;;;4.27;3.00;;;;;;;25.97;56.63;99289.59;5154427;27;20463;-73
2021/06/19 06:44:22;;;;;;;4.43;3.10;;;;;;;26.21;56.42;99296.63;5154453;27;20504;-73
2021/06/19 06:46:51;;;;;;;4.07;3.60;;;;;;;26.33;55.89;99303.31;5154388;27;20455;-74
2021/06/19 06:49:18;;;;;;;4.33;3.40;;;;;;;26.08;56.22;99302.03;5154399;27;20426;-74
2021/06/19 06:51:45;;;;;;;3.60;3.30;;;;;;;26.11;56.28;99305.22;5154058;27;20474;-74
2021/06/19 06:54:11;;;;;;;3.70;3.40;;;;;;;25.82;56.41;99303.41;5154117;27;20466;-73
2021/06/19 06:56:38;;;;;;;8.30;7.50;;;;;;;26.14;55.94;99309.50;5154045;27;20442;-74
2021/06/19 06:59:04;;;;;;;3.53;2.80;;;;;;;26.47;54.64;99312.56;5154276;27;20529;-73
2021/06/19 07:01:31;;;;;;;2.80;2.60;;;;;;;26.26;54.87;99305.16;5154378;27;20463;-75
2021/06/19 07:03:59;;;;;;;3.60;2.63;;;;;;;26.43;54.61;99297.44;5153692;27;20470;-74
2021/06/19 07:06:26;;;;;;;3.97;3.57;;;;;;;26.58;53.99;99306.53;5153897;27;20431;-73
2021/06/19 07:08:53;;;;;;;4.57;3.07;;;;;;;26.68;53.39;99299.81;5153906;27;20522;-74
2021/06/19 07:11:20;;;;;;;5.47;3.50;;;;;;;26.52;54.21;99298.16;5154376;27;20789;-73
2021/06/19 07:13:47;;;;;;;4.17;3.20;;;;;;;26.51;54.69;99296.47;5154349;27;20411;-74
2021/06/19 07:16:13;;;;;;;4.57;3.37;;;;;;;26.65;54.75;99301.06;5155246;27;20478;-74
2021/06/19 07:18:40;;;;;;;6.63;3.40;;;;;;;26.86;54.11;99296.53;5154402;27;20774;-74
2021/06/19 07:21:08;;;;;;;5.30;3.80;;;;;;;26.93;53.76;99291.91;5154674;27;20473;-73
2021/06/19 07:23:34;;;;;;;5.27;3.50;;;;;;;27.15;53.32;99300.97;5154233;27;20567;-74
2021/06/19 07:26:01;;;;;;;3.70;3.33;;;;;;;27.73;51.87;99297.88;5153878;27;20431;-75
2021/06/19 07:28:28;;;;;;;3.97;3.17;;;;;;;28.00;50.27;99294.16;5153814;27;20463;-73
2021/06/19 07:30:55;;;;;;;3.50;3.10;;;;;;;28.07;49.87;99291.38;5154499;27;20435;-74
2021/06/19 07:33:22;;;;;;;6.03;2.93;;;;;;;28.17;49.72;99290.97;5154279;27;20430;-74
2021/06/19 07:35:48;;;;;;;3.03;2.70;;;;;;;28.32;49.24;99286.09;5154081;27;20419;-74
2021/06/19 07:38:16;;;;;;;6.83;3.53;;;;;;;28.36;49.33;99295.69;5153875;27;20470;-74
2021/06/19 07:40:43;;;;;;;3.43;3.03;;;;;;;28.13;49.51;99286.91;5153322;27;20438;-74
2021/06/19 07:43:10;;;;;;;3.17;2.90;;;;;;;27.90;50.22;99274.31;5154048;27;20752;-73
2021/06/19 07:45:36;;;;;;;2.73;2.53;;;;;;;28.15;49.83;99265.41;5153788;27;20526;-73
2021/06/19 07:48:03;;;;;;;3.47;3.27;;;;;;;28.44;48.21;99261.38;5153467;27;20423;-73
2021/06/19 07:50:30;;;;;;;3.70;2.33;;;;;;;28.16;48.88;99261.59;5153867;27;20968;-74
2021/06/19 07:52:56;;;;;;;3.30;2.50;;;;;;;28.54;48.01;99258.22;5153412;27;20478;-74
2021/06/19 07:55:24;;;;;;;3.90;3.00;;;;;;;28.84;47.50;99265.00;5153716;27;20425;-74
2021/06/19 07:57:51;;;;;;;3.10;2.63;;;;;;;28.80;46.97;99260.94;5153837;27;20489;-74
2021/06/19 08:00:19;;;;;;;3.53;2.90;;;;;;;28.71;47.12;99253.09;5153599;27;20790;-75
2021/06/19 08:02:46;;;;;;;5.83;2.80;;;;;;;28.61;47.16;99248.84;5152613;27;20539;-75
2021/06/19 08:05:13;;;;;;;4.10;2.13;;;;;;;28.52;46.61;99240.97;5153349;27;20485;-76
2021/06/19 08:07:41;;;;;;;2.97;2.73;;;;;;;28.88;46.12;99243.25;5153899;27;20435;-74
2021/06/19 08:10:09;;;;;;;5.37;2.60;;;;;;;28.84;45.86;99242.84;5153235;27;20474;-74
2021/06/19 08:12:38;;;;;;;2.93;2.50;;;;;;;29.05;45.28;99252.78;5153488;27;20435;-74
2021/06/19 08:15:06;;;;;;;3.37;2.60;;;;;;;29.19;44.59;99241.69;5153223;27;20461;-73
2021/06/19 08:17:33;;;;;;;5.70;2.70;;;;;;;29.34;44.24;99230.34;5154499;27;20818;-73
2021/06/19 08:19:59;;;;;;;3.33;2.70;;;;;;;29.34;44.38;99235.91;5154111;27;20485;-73
2021/06/19 08:22:26;;;;;;;5.40;2.90;;;;;;;29.57;44.26;99229.81;5154211;27;20455;-73
2021/06/19 08:24:52;;;;;;;4.90;3.57;;;;;;;29.79;43.59;99216.47;5154324;27;20889;-73
2021/06/19 08:27:23;;;;;;;4.27;2.83;;;;;;;29.91;43.73;99218.28;5154374;27;20526;-73
2021/06/19 08:29:51;;;;;;;4.40;2.57;;;;;;;29.51;44.70;99223.22;5154388;27;20943;-73
2021/06/19 08:32:18;;;;;;;3.50;3.20;;;;;;;29.72;44.81;99219.28;5154631;27;20909;-73
2021/06/19 08:34:45;;;;;;;4.90;4.27;;;;;;;29.82;44.69;99210.47;5154768;27;20531;-71
2021/06/19 08:37:11;;;;;;;3.93;3.53;;;;;;;30.05;44.57;99198.78;5154724;27;20502;-73
2021/06/19 08:39:38;;;;;;;4.53;3.00;;;;;;;29.87;44.36;99203.19;5154426;27;20431;-73
2021/06/19 08:42:05;;;;;;;5.50;3.80;;;;;;;29.95;44.09;99198.44;5158323;27;20486;-72
2021/06/19 08:44:32;;;;;;;5.87;3.40;;;;;;;30.08;43.65;99207.50;5157976;27;20493;-73
2021/06/19 08:47:01;;;;;;;4.30;3.10;;;;;;;30.40;43.30;99201.94;5158299;27;20908;-72
2021/06/19 08:49:29;;;;;;;3.00;2.77;;;;;;;30.05;43.64;99191.31;5157999;27;20435;-72
2021/06/19 08:51:59;;;;;;;4.80;3.43;;;;;;;30.00;43.58;99188.34;5158283;27;20900;-72
2021/06/19 08:54:27;;;;;;;5.30;2.70;;;;;;;30.21;43.27;99180.69;5158261;27;20917;-74
2021/06/19 08:56:53;;;;;;;4.10;2.90;;;;;;;30.39;43.19;99171.59;5157822;27;20436;-72
2021/06/19 08:59:21;;;;;;;5.00;3.50;;;;;;;30.74;42.50;99163.53;5157507;27;20427;-73
2021/06/19 09:01:48;;;;;;;4.97;3.27;;;;;;;30.65;42.54;99151.88;5157730;27;20459;-73
2021/06/19 09:04:16;;;;;;;5.43;3.23;;;;;;;30.68;43.01;99147.78;5157773;27;20470;-72
2021/06/19 09:06:46;;;;;;;6.03;3.57;;;;;;;31.05;42.48;99137.56;5158324;27;20415;-72
2021/06/19 09:09:16;;;;;;;3.70;3.13;;;;;;;31.09;41.81;99127.66;5155581;27;20537;-71
2021/06/19 09:11:44;;;;;;;7.40;3.83;;;;;;;31.32;41.71;99132.47;5156610;27;20431;-72
2021/06/19 09:14:13;;;;;;;4.67;3.03;;;;;;;30.43;43.30;99129.25;5155753;27;20451;-72
2021/06/19 09:16:42;;;;;;;3.20;2.90;;;;;;;30.48;42.88;99120.22;5155480;27;20458;-72
2021/06/19 09:19:25;;;;;;;3.83;3.00;;;;;;;30.23;43.71;99111.91;5156507;27;20926;-73
2021/06/19 09:22:11;;;;;;;5.00;2.87;;;;;;;30.75;42.38;99102.19;5155607;27;20479;-73
2021/06/19 09:24:46;;;;;;;4.17;3.87;;;;;;;30.95;42.30;99099.16;5154918;27;20919;-72
2021/06/19 09:27:30;;;;;;;5.97;4.60;;;;;;;30.82;42.22;99093.78;5155369;27;20534;-72
2021/06/19 09:30:11;;;;;;;4.90;3.97;;;;;;;30.89;42.07;99091.78;5155209;27;20443;-73
2021/06/19 09:32:45;;;;;;;4.77;3.40;;;;;;;31.09;41.67;99088.75;5154837;27;20439;-72
2021/06/19 09:35:16;;;;;;;3.80;3.40;;;;;;;30.56;42.19;99094.94;5155595;27;20466;-73
2021/06/19 09:37:44;;;;;;;3.80;3.47;;;;;;;31.19;41.19;99090.94;5156437;27;20447;-74
2021/06/19 09:40:31;;;;;;;4.30;3.90;;;;;;;31.33;41.49;99088.81;5156466;27;20563;-72
2021/06/19 09:43:13;;;;;;;4.83;3.27;;;;;;;31.57;40.75;99098.13;5155890;27;20467;-71
2021/06/19 09:45:42;;;;;;;4.10;3.80;;;;;;;32.04;40.07;99100.97;5155355;27;20818;-72
2021/06/19 09:48:27;;;;;;;6.40;4.20;;;;;;;32.43;39.45;99095.78;5156015;27;20459;-74
2021/06/19 09:51:20;;;;;;;6.70;3.47;;;;;;;32.08;39.96;99084.66;5154125;27;20450;-74
2021/06/19 09:53:49;;;;;;;8.67;3.87;;;;;;;31.26;41.66;99086.13;5129408;27;20920;-74
2021/06/19 09:56:17;;;;;;;6.20;3.43;;;;;;;31.06;42.35;99091.97;5153654;27;20467;-75
2021/06/19 09:58:45;;;;;;;5.87;4.33;;;;;;;30.74;42.91;99099.63;5153165;27;20486;-74
2021/06/19 10:01:18;;;;;;;4.10;3.70;;;;;;;31.19;42.03;99104.84;5153909;27;20450;-75
2021/06/19 10:03:56;;;;;;;14.20;4.80;;;;;;;31.48;41.41;99102.34;5151982;27;20499;-74
2021/06/19 10:06:24;;;;;;;4.90;3.90;;;;;;;31.56;41.13;99104.75;5152554;27;20441;-73
2021/06/19 10:08:52;;;;;;;5.10;4.20;;;;;;;31.64;40.92;99104.41;5150246;27;21233;-74
2021/06/19 10:11:21;;;;;;;5.77;4.10;;;;;;;31.71;41.19;99110.72;5141074;27;20450;-74
2021/06/19 10:13:48;;;;;;;7.10;4.43;;;;;;;31.08;42.22;99109.28;5152472;27;20450;-74
2021/06/19 10:16:16;;;;;;;8.20;4.77;;;;;;;31.27;42.84;99090.59;5153229;27;20479;-73
2021/06/19 10:18:44;;;;;;;4.87;4.33;;;;;;;31.47;42.50;99090.34;5152499;27;20443;-74
2021/06/19 10:21:12;;;;;;;6.73;5.27;;;;;;;31.71;41.85;99102.38;5153440;27;20459;-74
2021/06/19 10:23:41;;;;;;;6.30;3.90;;;;;;;31.82;41.74;99094.28;5153507;27;20566;-74
2021/06/19 10:26:08;;;;;;;4.70;4.30;;;;;;;31.85;41.53;99094.66;5153516;27;20782;-74
2021/06/19 10:28:38;;;;;;;8.47;4.27;;;;;;;31.95;41.21;99092.13;5152513;27;20511;-74
2021/06/19 10:31:05;;;;;;;10.17;4.50;;;;;;;32.16;40.65;99092.66;5152935;27;20448;-74
2021/06/19 10:33:33;;;;;;;9.53;4.33;;;;;;;32.17;41.03;99086.81;5153426;27;20442;-74
2021/06/19 10:36:02;;;;;;;7.50;4.93;;;;;;;31.84;41.04;99089.31;5152566;27;20450;-73
2021/06/19 10:38:29;;;;;;;6.87;4.30;;;;;;;31.99;41.06;99092.50;5153532;27;20482;-75
2021/06/19 10:40:59;;;;;;;7.60;3.90;;;;;;;32.10;40.97;99086.09;5153101;27;20438;-74
2021/06/19 10:43:28;;;;;;;10.00;4.13;;;;;;;32.19;40.93;99095.78;5153630;27;20467;-75
2021/06/19 10:45:55;;;;;;;7.93;4.90;;;;;;;32.36;40.72;99092.25;5152524;27;20443;-73
2021/06/19 10:48:32;;;;;;;9.40;4.60;;;;;;;32.53;40.54;99095.19;5152411;27;20805;-73
2021/06/19 10:51:18;;;;;;;4.73;4.33;;;;;;;32.45;40.33;99096.38;5152197;27;20471;-74
2021/06/19 10:54:10;;;;;;;8.63;4.47;;;;;;;32.50;40.09;99096.50;5152854;27;20450;-73
2021/06/19 10:56:55;;;;;;;10.50;4.23;;;;;;;32.36;40.14;99081.97;5151555;27;20526;-74
2021/06/19 10:59:23;;;;;;;5.40;3.80;;;;;;;32.38;40.30;99078.94;5152206;27;20466;-73
2021/06/19 11:01:50;;;;;;;8.83;5.27;;;;;;;32.47;40.50;99071.88;5152720;27;20427;-74
2021/06/19 11:04:43;;;;;;;5.67;4.00;;;;;;;31.86;42.21;99060.16;5150905;27;20997;-74
2021/06/19 11:07:10;;;;;;;9.70;4.93;;;;;;;32.03;41.59;99065.03;5151893;27;20439;-74
2021/06/19 11:09:39;;;;;;;4.33;3.90;;;;;;;32.10;41.51;99072.19;5152948;27;20447;-74
2021/06/19 11:12:24;;;;;;;7.60;4.87;;;;;;;32.31;40.69;99062.34;5152727;27;20922;-74
2021/06/19 11:14:58;;;;;;;10.10;5.17;;;;;;;32.33;40.39;99068.53;5153047;27;20514;-74
2021/06/19 11:17:43;;;;;;;9.50;4.27;;;;;;;32.68;39.93;99070.44;5152642;27;20423;-73
2021/06/19 11:20:27;;;;;;;9.20;4.20;;;;;;;32.67;38.87;99062.31;5151543;27;20909;-74
2021/06/19 11:23:03;;;;;;;13.40;6.00;;;;;;;32.19;40.36;99051.22;5151713;27;20470;-74
2021/06/19 11:25:53;;;;;;;9.93;5.37;;;;;;;32.44;40.07;99052.88;5152145;27;20492;-75
2021/06/19 11:28:30;;;;;;;10.07;4.80;;;;;;;32.70;39.52;99045.09;5151945;27;20929;-74
2021/06/19 11:31:05;;;;;;;7.93;4.87;;;;;;;32.75;39.88;99037.69;5152002;27;20920;-75
2021/06/19 11:33:39;;;;;;;11.00;5.00;;;;;;;32.75;39.58;99031.28;5151887;27;20435;-74
2021/06/19 11:36:25;;;;;;;9.70;4.83;;;;;;;33.04;38.92;99040.50;5151749;27;20447;-75
2021/06/19 11:38:56;;;;;;;12.37;5.23;;;;;;;32.79;38.86;99036.13;5151345;27;20482;-75